Time;durP1;ratioP1;P1;durP2;ratioP2;P2;SDS_P1;SDS_P2;PMS_P1;PMS_P2;Temp;Humidity;BMP_temperature;BMP_pressure;BME280_temperature;BME280_humidity;BME280_pressure;Samples;Min_cycle;Max_cycle;Signal;HPM_P1;HPM_P2
2022/06/05 00:01:27;;;;;;;4.23;3.93;;;22.70;93.20;;;;;;4933736;29;20973;-76
2022/06/05 00:04:22;;;;;;;4.07;3.63;;;22.70;93.40;;;;;;4934786;29;20617;-75
2022/06/05 00:07:25;;;;;;;4.00;3.70;;;22.70;93.30;;;;;;4939037;29;20571;-76
2022/06/05 00:10:07;;;;;;;3.73;3.43;;;22.70;93.30;;;;;;4920263;29;20592;-76
2022/06/05 00:13:03;;;;;;;3.77;3.47;;;22.70;93.20;;;;;;4934057;29;20597;-76
2022/06/05 00:15:28;;;;;;;3.73;3.07;;;22.60;93.50;;;;;;4934504;29;20664;-74
2022/06/05 00:17:54;;;;;;;3.47;2.97;;;22.60;93.40;;;;;;4934251;29;21159;-75
2022/06/05 00:20:20;;;;;;;3.80;3.50;;;22.60;93.60;;;;;;4933971;29;20180;-75
2022/06/05 00:22:46;;;;;;;4.10;3.80;;;22.60;93.60;;;;;;4916215;29;20188;-76
2022/06/05 00:25:13;;;;;;;3.40;3.10;;;22.50;93.80;;;;;;4934143;29;20577;-76
2022/06/05 00:27:46;;;;;;;4.10;3.80;;;22.50;93.90;;;;;;4934296;29;20576;-75
2022/06/05 00:30:17;;;;;;;3.93;3.60;;;22.40;94.60;;;;;;4933704;29;21027;-77
2022/06/05 00:32:51;;;;;;;3.30;3.03;;;22.40;94.20;;;;;;4904354;29;20603;-76
2022/06/05 00:35:21;;;;;;;3.67;3.37;;;22.40;94.60;;;;;;4938443;29;20565;-77
2022/06/05 00:38:02;;;;;;;3.93;3.57;;;22.40;94.50;;;;;;4920757;29;20584;-77
2022/06/05 00:40:51;;;;;;;4.93;3.83;;;22.30;94.70;;;;;;4938060;29;20593;-75
2022/06/05 00:43:19;;;;;;;3.23;2.90;;;22.30;94.80;;;;;;4941910;29;20711;-75
2022/06/05 00:45:46;;;;;;;4.40;4.00;;;22.30;94.80;;;;;;4936883;29;21113;-76
2022/06/05 00:48:12;;;;;;;4.10;3.70;;;22.30;95.30;;;;;;4936788;29;20573;-76
2022/06/05 00:50:41;;;;;;;4.33;3.73;;;22.30;95.20;;;;;;4920716;29;20906;-76
2022/06/05 00:53:08;;;;;;;4.07;3.77;;;22.20;95.50;;;;;;4937133;29;20601;-77
2022/06/05 00:55:47;;;;;;;4.47;4.03;;;22.20;95.50;;;;;;4938161;29;20612;-76
2022/06/05 00:58:14;;;;;;;3.60;3.27;;;22.20;96.30;;;;;;4938053;29;21116;-76
2022/06/05 01:00:43;;;;;;;4.63;3.87;;;22.20;95.70;;;;;;4937387;29;20597;-76
2022/06/05 01:03:11;;;;;;;3.40;3.10;;;22.20;96.00;;;;;;4929729;29;20647;-76
2022/06/05 01:05:37;;;;;;;4.33;4.03;;;22.10;96.00;;;;;;4921152;29;20948;-75
2022/06/05 01:08:04;;;;;;;3.30;3.10;;;22.10;96.00;;;;;;4937670;29;20701;-75
2022/06/05 01:11:08;;;;;;;4.10;3.80;;;22.10;96.10;;;;;;4920680;29;20592;-76
2022/06/05 01:13:58;;;;;;;3.33;3.13;;;22.10;96.30;;;;;;4875867;29;20636;-75
2022/06/05 01:16:30;;;;;;;4.10;3.80;;;22.10;96.20;;;;;;4921037;29;21188;-76
2022/06/05 01:19:27;;;;;;;3.00;2.80;;;22.00;96.70;;;;;;4939357;29;20663;-76
2022/06/05 01:22:23;;;;;;;3.47;3.10;;;22.00;96.40;;;;;;4919828;29;20644;-76
2022/06/05 01:25:14;;;;;;;5.57;3.40;;;22.00;96.50;;;;;;4942718;29;20620;-75
2022/06/05 01:27:43;;;;;;;3.50;2.97;;;22.00;96.50;;;;;;4948578;29;20932;-75
2022/06/05 01:30:16;;;;;;;3.60;2.87;;;22.00;96.70;;;;;;4947575;29;20996;-75
2022/06/05 01:33:02;;;;;;;3.80;3.40;;;21.90;96.90;;;;;;4947893;29;20677;-75
2022/06/05 01:35:43;;;;;;;3.87;3.57;;;21.90;96.90;;;;;;4930389;29;20587;-76
2022/06/05 01:38:17;;;;;;;3.30;2.93;;;21.90;97.10;;;;;;4947732;29;20656;-75
2022/06/05 01:40:47;;;;;;;3.50;3.20;;;21.90;97.10;;;;;;4947853;29;20630;-75
2022/06/05 01:43:20;;;;;;;4.27;3.03;;;21.90;97.20;;;;;;4946174;29;20640;-76
2022/06/05 01:45:46;;;;;;;3.30;3.00;;;21.80;97.20;;;;;;4937263;29;21020;-75
2022/06/05 01:48:21;;;;;;;3.07;2.77;;;21.80;97.30;;;;;;4920109;29;20716;-76
2022/06/05 01:50:56;;;;;;;3.20;2.83;;;21.80;97.40;;;;;;4936314;29;20584;-76
2022/06/05 01:53:29;;;;;;;5.93;3.10;;;21.80;97.50;;;;;;4937356;29;20576;-76
2022/06/05 01:56:07;;;;;;;2.80;2.60;;;21.70;97.60;;;;;;4940633;29;20580;-76
2022/06/05 01:58:43;;;;;;;4.10;3.70;;;21.70;97.60;;;;;;4937384;29;20583;-76
2022/06/05 02:01:16;;;;;;;4.10;3.13;;;21.70;97.80;;;;;;4935170;29;20632;-76
2022/06/05 02:04:00;;;;;;;3.90;3.53;;;21.70;97.80;;;;;;4936981;29;20612;-76
2022/06/05 02:06:33;;;;;;;3.50;3.20;;;21.60;97.90;;;;;;4936572;29;21020;-76
2022/06/05 02:09:15;;;;;;;4.30;3.90;;;21.60;97.90;;;;;;4936772;29;20577;-76
2022/06/05 02:11:40;;;;;;;3.53;3.13;;;21.60;98.40;;;;;;4934796;29;20611;-75
2022/06/05 02:14:08;;;;;;;3.97;3.47;;;21.60;98.50;;;;;;4935260;29;20929;-76
2022/06/05 02:16:36;;;;;;;3.63;3.33;;;21.60;98.70;;;;;;4935650;29;20765;-76
2022/06/05 02:19:09;;;;;;;3.27;2.90;;;21.50;98.60;;;;;;4936151;29;20893;-76
2022/06/05 02:21:37;;;;;;;3.50;2.77;;;21.50;98.50;;;;;;4918453;29;20632;-76
2022/06/05 02:24:05;;;;;;;3.10;2.83;;;21.50;98.50;;;;;;4919057;29;20633;-75
2022/06/05 02:26:31;;;;;;;3.30;3.00;;;21.50;98.60;;;;;;4936073;29;20724;-76
2022/06/05 02:28:57;;;;;;;3.60;3.30;;;21.50;98.70;;;;;;4936222;29;20660;-76
2022/06/05 02:31:46;;;;;;;3.03;2.83;;;21.50;98.80;;;;;;4934076;29;21042;-75
2022/06/05 02:34:30;;;;;;;3.23;2.93;;;21.40;99.20;;;;;;4923464;29;20604;-75
2022/06/05 02:36:56;;;;;;;3.80;3.20;;;21.40;99.50;;;;;;4918842;29;20584;-75
2022/06/05 02:39:33;;;;;;;2.33;2.13;;;21.40;99.10;;;;;;4961725;23;20663;-76
2022/06/05 02:42:05;;;;;;;3.90;3.40;;;21.40;99.10;;;;;;4956375;28;20184;-77
2022/06/05 02:44:37;;;;;;;2.60;2.40;;;21.30;99.60;;;;;;4974643;28;20631;-77
2022/06/05 02:47:31;;;;;;;2.90;2.70;;;21.30;99.40;;;;;;4975016;28;20559;-76
2022/06/05 02:50:34;;;;;;;3.50;3.17;;;21.30;99.60;;;;;;4956299;28;20962;-76
2022/06/05 02:53:02;;;;;;;3.23;2.93;;;21.30;99.80;;;;;;4937877;28;20974;-77
2022/06/05 02:55:28;;;;;;;3.03;2.83;;;21.30;99.40;;;;;;4956564;28;20670;-77
2022/06/05 02:57:54;;;;;;;3.47;3.17;;;21.30;99.90;;;;;;4974256;28;20659;-77
2022/06/05 03:00:23;;;;;;;3.40;3.10;;;21.30;99.80;;;;;;4974047;28;20599;-77
2022/06/05 03:05:34;;;;;;;3.20;3.00;;;21.20;99.90;;;;;;4956927;28;20634;-77
2022/06/05 03:08:00;;;;;;;4.10;3.20;;;21.20;99.90;;;;;;4974107;28;20567;-77
2022/06/05 03:10:27;;;;;;;3.10;2.63;;;21.20;99.90;;;;;;4956549;28;20661;-77
2022/06/05 03:12:53;;;;;;;2.63;2.43;;;21.20;99.90;;;;;;4944982;28;20682;-77
2022/06/05 03:15:19;;;;;;;2.90;2.57;;;21.20;99.90;;;;;;4967434;28;20589;-77
2022/06/05 03:17:45;;;;;;;2.40;2.20;;;21.20;99.90;;;;;;4958281;28;20619;-77
2022/06/05 03:20:14;;;;;;;4.07;3.70;;;21.20;99.90;;;;;;4983947;28;20639;-77
2022/06/05 03:22:40;;;;;;;3.20;2.90;;;21.10;99.90;;;;;;4969879;28;20574;-77
2022/06/05 03:25:06;;;;;;;2.53;2.33;;;21.20;99.90;;;;;;4987496;28;20638;-77
2022/06/05 03:27:32;;;;;;;2.90;2.70;;;21.20;99.90;;;;;;4964253;28;20606;-77
2022/06/05 03:29:59;;;;;;;2.80;2.50;;;21.10;99.90;;;;;;4973624;28;20668;-77
2022/06/05 03:32:25;;;;;;;3.60;2.70;;;21.20;99.90;;;;;;4992278;28;20198;-77
2022/06/05 03:34:51;;;;;;;3.17;2.87;;;21.20;99.90;;;;;;4992982;28;20582;-77
2022/06/05 03:37:17;;;;;;;3.80;3.10;;;21.30;99.90;;;;;;4975834;28;20589;-77
2022/06/05 03:39:43;;;;;;;3.30;2.60;;;21.20;99.90;;;;;;4992983;28;20246;-77
2022/06/05 03:42:09;;;;;;;3.53;3.23;;;21.30;99.90;;;;;;4992981;28;20599;-77
2022/06/05 03:44:36;;;;;;;3.23;2.93;;;21.30;99.90;;;;;;4993005;28;20210;-76
2022/06/05 03:47:03;;;;;;;2.63;2.43;;;21.20;99.90;;;;;;4975519;28;20862;-78
2022/06/05 03:49:29;;;;;;;3.13;2.60;;;21.30;99.90;;;;;;4993156;28;20598;-78
2022/06/05 03:51:54;;;;;;;4.40;3.40;;;21.30;99.90;;;;;;4995765;28;20978;-78
2022/06/05 03:54:20;;;;;;;2.93;2.73;;;21.30;99.90;;;;;;4998022;28;20170;-77
2022/06/05 03:56:46;;;;;;;3.10;2.80;;;21.40;99.90;;;;;;4993156;28;20199;-77
2022/06/05 03:59:11;;;;;;;3.27;2.97;;;21.40;99.90;;;;;;4958963;28;20209;-77
2022/06/05 04:01:37;;;;;;;5.00;4.50;;;21.40;99.90;;;;;;4991588;28;20175;-78
2022/06/05 04:04:03;;;;;;;3.10;2.90;;;21.40;99.90;;;;;;4958980;28;20203;-78
2022/06/05 04:06:30;;;;;;;3.97;3.17;;;21.40;99.90;;;;;;4975069;28;20317;-78
2022/06/05 04:08:58;;;;;;;2.90;2.70;;;21.40;99.90;;;;;;4974933;28;20637;-78
2022/06/05 04:11:24;;;;;;;2.77;2.57;;;21.50;99.90;;;;;;4991712;28;20652;-78
2022/06/05 04:13:50;;;;;;;3.47;2.43;;;21.50;99.90;;;;;;4975159;28;20645;-78
2022/06/05 04:16:21;;;;;;;3.30;3.00;;;21.50;99.90;;;;;;4959151;28;20578;-78
2022/06/05 04:18:49;;;;;;;2.60;2.40;;;21.50;99.90;;;;;;4992759;28;20581;-77
2022/06/05 04:21:21;;;;;;;3.00;2.70;;;21.60;99.90;;;;;;4974345;28;20962;-77
2022/06/05 04:23:47;;;;;;;3.53;3.00;;;21.60;99.90;;;;;;4975162;28;20628;-78
2022/06/05 04:26:16;;;;;;;2.80;2.40;;;21.60;99.90;;;;;;4974974;28;20941;-78
2022/06/05 04:28:42;;;;;;;2.90;2.70;;;21.70;99.90;;;;;;4995140;28;20651;-77
2022/06/05 04:31:28;;;;;;;3.47;3.17;;;21.70;99.90;;;;;;4977172;28;20566;-77
2022/06/05 04:33:57;;;;;;;3.30;3.10;;;21.70;99.90;;;;;;4992314;28;20929;-77
2022/06/05 04:36:23;;;;;;;3.20;2.90;;;21.70;99.90;;;;;;4992177;28;20578;-77
2022/06/05 04:38:49;;;;;;;4.87;2.40;;;21.80;99.90;;;;;;4991997;28;20685;-77
2022/06/05 04:41:18;;;;;;;2.83;2.63;;;21.80;99.90;;;;;;4991506;28;20620;-77
2022/06/05 04:43:44;;;;;;;2.70;2.50;;;21.80;99.90;;;;;;4991810;28;20657;-77
2022/06/05 04:46:10;;;;;;;3.83;3.00;;;21.90;99.90;;;;;;4974570;28;20582;-77
2022/06/05 04:48:36;;;;;;;2.43;2.23;;;21.90;99.90;;;;;;4991962;28;20586;-77
2022/06/05 04:51:06;;;;;;;2.90;2.67;;;21.90;99.90;;;;;;4991169;28;20171;-77
2022/06/05 04:53:32;;;;;;;4.90;2.80;;;21.90;99.90;;;;;;4992013;28;20577;-77
2022/06/05 04:56:03;;;;;;;2.90;2.57;;;21.90;99.90;;;;;;4991948;28;20582;-77
2022/06/05 04:58:28;;;;;;;3.77;3.47;;;21.90;99.90;;;;;;4991940;28;20566;-77
2022/06/05 05:00:54;;;;;;;2.97;2.77;;;21.90;99.90;;;;;;4991313;28;20915;-77
2022/06/05 05:03:20;;;;;;;4.20;3.20;;;22.00;99.90;;;;;;4991964;28;20205;-77
2022/06/05 05:05:46;;;;;;;4.03;3.40;;;22.00;99.90;;;;;;4998163;28;20175;-77
2022/06/05 05:08:11;;;;;;;3.20;2.90;;;21.90;99.90;;;;;;4991920;28;20635;-77
2022/06/05 05:10:37;;;;;;;3.13;2.93;;;22.00;99.90;;;;;;4974298;28;20568;-77
2022/06/05 05:13:03;;;;;;;3.10;2.90;;;21.90;99.90;;;;;;4973829;28;20304;-77
2022/06/05 05:15:29;;;;;;;2.73;2.53;;;21.90;99.90;;;;;;4974475;28;20171;-77
2022/06/05 05:17:55;;;;;;;3.10;2.80;;;22.00;99.90;;;;;;4976281;28;20559;-77
2022/06/05 05:20:20;;;;;;;3.07;2.50;;;21.90;99.90;;;;;;4977541;28;20195;-77
2022/06/05 05:22:46;;;;;;;3.20;2.90;;;21.90;99.90;;;;;;4994647;28;20569;-78
2022/06/05 05:25:12;;;;;;;3.20;2.90;;;22.00;99.90;;;;;;4977742;28;20689;-77
2022/06/05 05:27:39;;;;;;;3.63;2.27;;;22.00;99.90;;;;;;4995016;28;20167;-77
2022/06/05 05:30:07;;;;;;;3.23;2.70;;;22.00;99.90;;;;;;4961112;28;20701;-77
2022/06/05 05:32:33;;;;;;;3.83;2.77;;;22.00;99.90;;;;;;4994579;28;20565;-77
2022/06/05 05:34:59;;;;;;;3.53;3.23;;;22.00;99.90;;;;;;4995238;28;20574;-77
2022/06/05 05:37:24;;;;;;;3.03;2.83;;;22.10;99.90;;;;;;4995092;28;21022;-77
2022/06/05 05:42:34;;;;;;;3.60;3.30;;;22.20;99.90;;;;;;4980276;28;20635;-78
2022/06/05 05:45:00;;;;;;;3.37;2.57;;;22.10;99.90;;;;;;4945564;28;20637;-77
2022/06/05 05:47:29;;;;;;;2.80;2.60;;;22.20;99.90;;;;;;4994902;28;20167;-77
2022/06/05 05:50:07;;;;;;;5.47;3.53;;;22.10;99.90;;;;;;4994515;28;21054;-77
2022/06/05 05:52:34;;;;;;;3.10;2.87;;;22.10;99.90;;;;;;4977329;28;20672;-77
2022/06/05 05:55:01;;;;;;;2.90;2.70;;;22.20;99.90;;;;;;4977546;28;21289;-77
2022/06/05 05:57:27;;;;;;;3.50;3.20;;;22.30;99.90;;;;;;4994541;28;20944;-77
2022/06/05 05:59:53;;;;;;;3.10;2.90;;;22.30;99.90;;;;;;4994433;28;20632;-77
2022/06/05 06:02:21;;;;;;;3.33;3.13;;;22.40;99.90;;;;;;4976865;28;20589;-77
2022/06/05 06:04:49;;;;;;;3.60;3.30;;;22.30;99.90;;;;;;4994513;28;20202;-77
2022/06/05 06:07:15;;;;;;;3.50;3.20;;;22.40;99.90;;;;;;4977278;28;20628;-77
2022/06/05 06:09:42;;;;;;;3.40;2.93;;;22.40;99.90;;;;;;4994236;28;20598;-76
2022/06/05 06:12:09;;;;;;;3.30;3.10;;;22.40;99.90;;;;;;4976502;28;20569;-76
2022/06/05 06:14:36;;;;;;;2.97;2.70;;;22.40;99.90;;;;;;4994236;28;20573;-77
2022/06/05 06:17:03;;;;;;;3.47;3.20;;;22.50;99.90;;;;;;4994664;28;20606;-77
2022/06/05 06:19:29;;;;;;;3.63;3.07;;;22.50;99.90;;;;;;4997296;28;21058;-77
2022/06/05 06:21:55;;;;;;;3.50;3.20;;;22.40;99.90;;;;;;4993506;28;20604;-77
2022/06/05 06:24:21;;;;;;;4.03;3.37;;;22.50;99.90;;;;;;4976578;28;20724;-77
2022/06/05 06:26:46;;;;;;;6.80;3.17;;;22.50;99.90;;;;;;4993989;28;20174;-77
2022/06/05 06:29:12;;;;;;;3.07;2.80;;;22.50;99.90;;;;;;4992988;28;20193;-77
2022/06/05 06:31:39;;;;;;;4.00;3.70;;;22.50;99.90;;;;;;4976508;28;20178;-77
2022/06/05 06:34:06;;;;;;;3.10;2.90;;;22.60;99.90;;;;;;4977064;28;20650;-76
2022/06/05 06:36:32;;;;;;;3.40;3.10;;;22.60;99.90;;;;;;4993920;28;20578;-76
2022/06/05 06:38:59;;;;;;;3.40;3.00;;;22.60;99.90;;;;;;4993572;28;20613;-76
2022/06/05 06:41:26;;;;;;;3.67;2.80;;;22.70;99.90;;;;;;4975646;28;20673;-76
2022/06/05 06:43:52;;;;;;;3.73;3.43;;;22.80;99.90;;;;;;4975394;28;20641;-76
2022/06/05 06:46:18;;;;;;;3.00;2.73;;;22.90;99.90;;;;;;4993719;28;20571;-77
2022/06/05 06:48:45;;;;;;;5.07;3.20;;;22.90;99.90;;;;;;4993822;28;20570;-77
2022/06/05 06:51:11;;;;;;;3.67;3.37;;;23.00;99.90;;;;;;4975793;28;21173;-77
2022/06/05 06:53:38;;;;;;;5.77;3.73;;;23.00;99.90;;;;;;4993625;28;20570;-77
2022/06/05 06:56:09;;;;;;;4.07;3.77;;;23.00;99.90;;;;;;4996137;28;20571;-77
2022/06/05 06:58:35;;;;;;;3.77;3.47;;;22.90;99.90;;;;;;4994209;28;20585;-76
2022/06/05 07:01:01;;;;;;;3.33;3.10;;;22.90;99.90;;;;;;4975207;28;20673;-77
2022/06/05 07:03:27;;;;;;;3.67;3.40;;;22.90;99.90;;;;;;4993278;28;20713;-77
2022/06/05 07:05:53;;;;;;;4.13;3.83;;;22.90;99.90;;;;;;4993347;28;21040;-77
2022/06/05 07:08:19;;;;;;;4.13;3.77;;;22.90;99.90;;;;;;4975245;28;20582;-76
2022/06/05 07:10:44;;;;;;;4.23;3.40;;;22.90;99.90;;;;;;4992844;28;20187;-77
2022/06/05 07:13:10;;;;;;;3.63;3.33;;;22.90;99.90;;;;;;4992776;28;20178;-76
2022/06/05 07:15:36;;;;;;;3.67;3.37;;;23.00;99.90;;;;;;4993148;28;20307;-77
2022/06/05 07:18:06;;;;;;;3.40;3.03;;;23.00;99.90;;;;;;4993222;28;21125;-77
2022/06/05 07:20:37;;;;;;;9.10;4.13;;;23.10;99.90;;;;;;4975191;28;20678;-77
2022/06/05 07:23:04;;;;;;;3.80;3.50;;;23.10;99.90;;;;;;4958832;28;20582;-77
2022/06/05 07:25:32;;;;;;;4.57;3.50;;;23.20;99.90;;;;;;4993007;28;20563;-77
2022/06/05 07:27:58;;;;;;;3.70;3.50;;;23.30;99.90;;;;;;4992840;28;20578;-77
2022/06/05 07:30:25;;;;;;;3.87;3.50;;;23.40;99.90;;;;;;4992751;28;20590;-77
2022/06/05 07:32:51;;;;;;;3.80;3.50;;;23.50;99.90;;;;;;4994132;28;20567;-77
2022/06/05 07:35:17;;;;;;;3.63;3.33;;;23.60;99.90;;;;;;4961210;28;20574;-76
2022/06/05 07:37:43;;;;;;;4.33;4.00;;;23.70;99.90;;;;;;4975168;28;20582;-77
2022/06/05 07:40:10;;;;;;;3.60;3.30;;;23.70;99.90;;;;;;4991865;28;20718;-77
2022/06/05 07:42:41;;;;;;;3.83;3.27;;;23.80;99.90;;;;;;4974636;28;20167;-77
2022/06/05 07:45:08;;;;;;;4.43;4.03;;;23.90;99.90;;;;;;4958863;28;20638;-77
2022/06/05 07:47:34;;;;;;;3.43;2.77;;;23.90;99.90;;;;;;4975652;28;20578;-76
2022/06/05 07:50:00;;;;;;;3.43;3.13;;;24.00;99.90;;;;;;4992362;28;20694;-77
2022/06/05 07:55:11;;;;;;;3.63;3.27;;;24.10;99.90;;;;;;4992623;28;20566;-77
2022/06/05 07:57:37;;;;;;;4.20;3.80;;;24.10;99.90;;;;;;4992547;28;20558;-76
2022/06/05 08:00:07;;;;;;;3.50;3.27;;;24.20;99.90;;;;;;4992035;28;20712;-77
2022/06/05 08:02:34;;;;;;;4.73;4.33;;;24.20;99.90;;;;;;4992226;28;20925;-77
2022/06/05 08:05:02;;;;;;;3.47;3.17;;;24.10;99.90;;;;;;4974977;28;20621;-77
2022/06/05 08:07:29;;;;;;;3.30;3.00;;;24.10;99.90;;;;;;4992400;28;20581;-77
2022/06/05 08:09:56;;;;;;;4.03;3.73;;;24.10;99.90;;;;;;4994017;28;20598;-76
2022/06/05 08:12:24;;;;;;;3.23;3.03;;;24.00;99.90;;;;;;4992793;28;20966;-77
2022/06/05 08:14:52;;;;;;;4.40;4.10;;;24.00;99.90;;;;;;4993380;28;20657;-77
2022/06/05 08:17:23;;;;;;;4.10;3.67;;;23.90;99.90;;;;;;4992951;28;20951;-76
2022/06/05 08:19:49;;;;;;;3.77;3.47;;;23.80;99.90;;;;;;4974652;28;20618;-76
2022/06/05 08:22:17;;;;;;;6.47;4.03;;;23.80;99.90;;;;;;4974415;28;20571;-76
2022/06/05 08:24:43;;;;;;;4.50;4.10;;;23.70;99.90;;;;;;4975034;28;20625;-77
2022/06/05 08:27:11;;;;;;;5.53;3.77;;;23.70;99.90;;;;;;4992136;28;20601;-77
2022/06/05 08:29:37;;;;;;;3.70;3.40;;;23.60;99.90;;;;;;4991842;28;21006;-77
2022/06/05 08:32:04;;;;;;;4.63;4.23;;;23.60;99.90;;;;;;4991889;28;20625;-77
2022/06/05 08:34:30;;;;;;;5.03;4.60;;;23.60;99.90;;;;;;4991878;28;20566;-76
2022/06/05 08:42:40;;;;;;;4.10;3.80;;;23.50;99.90;;;;;;4977522;28;20592;-76
2022/06/05 08:45:22;;;;;;;4.50;4.10;;;23.50;99.90;;;;;;4960221;28;20657;-77
2022/06/05 08:47:57;;;;;;;4.40;4.10;;;23.50;99.90;;;;;;4978116;28;20582;-75
2022/06/05 08:50:50;;;;;;;3.93;3.63;;;23.40;99.90;;;;;;4960519;28;20620;-77
2022/06/05 08:53:29;;;;;;;5.10;4.60;;;23.40;99.90;;;;;;4996170;28;21124;-77
2022/06/05 08:56:01;;;;;;;4.17;3.70;;;23.30;99.90;;;;;;4978178;28;21269;-77
2022/06/05 08:58:50;;;;;;;4.63;4.23;;;23.30;99.90;;;;;;4995629;28;20585;-76
2022/06/05 09:01:41;;;;;;;4.90;4.50;;;23.30;99.90;;;;;;4994850;28;20578;-76
2022/06/05 09:04:22;;;;;;;4.63;4.13;;;23.20;99.90;;;;;;4995305;28;20625;-77
2022/06/05 09:07:03;;;;;;;4.97;4.60;;;23.20;99.90;;;;;;4995387;28;20624;-77
2022/06/05 09:09:45;;;;;;;3.77;3.47;;;23.10;99.90;;;;;;4977809;28;20605;-76
2022/06/05 09:12:30;;;;;;;4.70;4.30;;;23.20;99.90;;;;;;4994972;28;20995;-76
2022/06/05 09:15:18;;;;;;;4.40;4.10;;;23.10;99.90;;;;;;4961845;28;20578;-77
2022/06/05 09:17:53;;;;;;;5.00;4.60;;;23.10;99.90;;;;;;4961514;28;20578;-77
2022/06/05 09:20:22;;;;;;;4.73;4.43;;;22.90;99.90;;;;;;4994834;28;20656;-77
2022/06/05 09:22:57;;;;;;;5.30;4.90;;;22.60;99.90;;;;;;4977326;28;21166;-77
2022/06/05 09:25:51;;;;;;;5.57;5.07;;;22.40;99.90;;;;;;4997575;28;20668;-77
2022/06/05 09:28:45;;;;;;;6.93;6.43;;;22.00;99.90;;;;;;4995206;28;21058;-76
2022/06/05 09:31:29;;;;;;;7.47;6.87;;;21.60;99.90;;;;;;4994183;28;20589;-76
2022/06/05 09:33:59;;;;;;;6.77;6.27;;;21.20;99.90;;;;;;4994904;28;20581;-75
2022/06/05 09:36:27;;;;;;;7.50;7.00;;;20.90;99.90;;;;;;4995223;28;20950;-76
2022/06/05 09:39:22;;;;;;;7.20;6.60;;;20.70;99.90;;;;;;4977269;28;20719;-76
2022/06/05 09:42:14;;;;;;;7.37;6.67;;;20.50;99.90;;;;;;4973280;28;20986;-76
2022/06/05 09:44:56;;;;;;;7.03;6.43;;;20.40;99.90;;;;;;4994533;28;20661;-75
2022/06/05 09:47:29;;;;;;;7.17;6.57;;;20.40;99.90;;;;;;4994739;28;20570;-76
2022/06/05 09:49:59;;;;;;;8.00;7.40;;;20.40;99.90;;;;;;4994451;28;20602;-76
2022/06/05 09:52:31;;;;;;;7.23;6.73;;;20.50;99.90;;;;;;4994351;28;21121;-76
2022/06/05 09:55:16;;;;;;;8.03;7.23;;;20.50;99.90;;;;;;4994635;28;21253;-76
2022/06/05 09:58:24;;;;;;;7.63;7.10;;;20.50;99.90;;;;;;4994657;28;21002;-76
2022/06/05 10:00:53;;;;;;;8.53;7.73;;;20.60;99.90;;;;;;4995787;28;20613;-75
2022/06/05 10:03:24;;;;;;;8.17;7.60;;;20.60;99.90;;;;;;4979284;28;20578;-76
2022/06/05 10:06:35;;;;;;;7.40;6.90;;;20.70;99.90;;;;;;4997491;28;20644;-76
2022/06/05 10:09:04;;;;;;;8.23;7.50;;;20.60;99.90;;;;;;4947286;28;20629;-75
2022/06/05 10:11:50;;;;;;;8.57;7.10;;;20.60;99.90;;;;;;4993609;28;20605;-75
2022/06/05 10:14:33;;;;;;;8.03;7.50;;;20.70;99.90;;;;;;4976818;28;20604;-75
2022/06/05 10:17:08;;;;;;;8.10;7.50;;;20.80;99.90;;;;;;4976710;28;20584;-76
2022/06/05 10:19:59;;;;;;;7.83;7.13;;;20.80;99.90;;;;;;4993908;28;21028;-76
2022/06/05 10:22:40;;;;;;;8.80;8.00;;;20.70;99.90;;;;;;4976404;28;21160;-76
2022/06/05 10:25:47;;;;;;;9.53;8.73;;;20.70;99.90;;;;;;4976706;28;20630;-76
2022/06/05 10:28:19;;;;;;;7.57;7.07;;;20.70;99.90;;;;;;4994286;28;20582;-76
2022/06/05 10:31:13;;;;;;;9.07;8.40;;;20.70;99.90;;;;;;4975990;28;20645;-76
2022/06/05 10:33:39;;;;;;;8.20;7.20;;;20.70;99.90;;;;;;4976661;28;20593;-76
2022/06/05 10:36:29;;;;;;;8.40;7.50;;;20.80;99.90;;;;;;4993999;28;20582;-76
2022/06/05 10:39:17;;;;;;;8.30;7.70;;;20.80;99.90;;;;;;4978063;28;20233;-76
2022/06/05 10:41:52;;;;;;;8.50;8.00;;;20.80;99.90;;;;;;4959728;28;20590;-76
2022/06/05 10:44:26;;;;;;;8.50;7.90;;;20.90;99.90;;;;;;4976207;28;20962;-76
2022/06/05 10:47:10;;;;;;;7.77;7.20;;;21.00;99.90;;;;;;4975878;28;20578;-76
2022/06/05 10:49:45;;;;;;;7.43;6.93;;;21.20;99.90;;;;;;4993228;28;20689;-76
2022/06/05 10:52:28;;;;;;;8.00;7.40;;;21.50;99.90;;;;;;4975521;28;20582;-76
2022/06/05 10:55:18;;;;;;;8.13;7.53;;;21.80;99.90;;;;;;4976241;28;20585;-76
2022/06/05 10:58:18;;;;;;;10.63;9.83;;;22.10;99.90;;;;;;4959542;28;20586;-76
2022/06/05 11:01:00;;;;;;;7.40;6.90;;;22.40;99.90;;;;;;4975412;28;20608;-76
2022/06/05 11:03:47;;;;;;;6.47;6.07;;;22.90;99.90;;;;;;4975803;28;20989;-76
2022/06/05 11:06:25;;;;;;;6.83;6.33;;;23.40;99.90;;;;;;4993378;28;20567;-76
2022/06/05 11:09:09;;;;;;;6.70;6.20;;;23.90;99.90;;;;;;4975467;28;20581;-76
2022/06/05 11:15:48;;;;;;;5.63;5.13;;;24.70;99.90;;;;;;4992826;28;20658;-76
2022/06/05 11:18:29;;;;;;;5.73;5.33;;;25.10;99.90;;;;;;4943718;28;20648;-76
2022/06/05 11:21:01;;;;;;;5.67;5.27;;;25.50;99.90;;;;;;4992048;28;20637;-76
2022/06/05 11:23:32;;;;;;;5.13;4.73;;;25.70;99.90;;;;;;4992830;28;20576;-76
2022/06/05 11:26:33;;;;;;;4.77;4.43;;;25.80;99.90;;;;;;4992764;28;20644;-76
2022/06/05 11:29:20;;;;;;;4.63;4.23;;;25.60;99.90;;;;;;4992526;28;20644;-77
2022/06/05 11:32:18;;;;;;;4.70;4.40;;;25.60;99.90;;;;;;4974607;28;20574;-76
2022/06/05 11:35:09;;;;;;;7.03;4.70;;;25.40;99.90;;;;;;4975507;28;20577;-76
2022/06/05 11:37:43;;;;;;;5.13;4.80;;;25.40;99.90;;;;;;4992825;28;20578;-76
2022/06/05 11:40:17;;;;;;;4.90;4.60;;;25.20;99.90;;;;;;4992043;28;20621;-76
2022/06/05 11:42:54;;;;;;;5.67;5.27;;;25.30;99.90;;;;;;4992115;28;20569;-76
2022/06/05 11:45:38;;;;;;;5.57;5.13;;;25.30;99.90;;;;;;4959102;28;21085;-76
2022/06/05 11:48:04;;;;;;;4.90;4.60;;;25.40;99.90;;;;;;4975404;28;20566;-76
2022/06/05 11:50:36;;;;;;;5.27;4.87;;;25.50;99.90;;;;;;4992278;28;21133;-76
2022/06/05 11:53:08;;;;;;;5.03;4.73;;;25.50;99.90;;;;;;4976039;28;20566;-76
2022/06/05 11:56:12;;;;;;;5.37;4.97;;;25.50;99.90;;;;;;4975280;28;20593;-76
2022/06/05 11:58:44;;;;;;;4.63;4.23;;;25.50;99.90;;;;;;4946340;28;20696;-75
2022/06/05 12:01:24;;;;;;;5.20;4.70;;;25.30;99.90;;;;;;4991265;28;20579;-76
2022/06/05 12:03:56;;;;;;;4.77;4.37;;;25.30;99.90;;;;;;4975094;28;20688;-77
2022/06/05 12:06:34;;;;;;;4.80;4.50;;;25.10;99.90;;;;;;4959118;28;20993;-76
2022/06/05 12:09:04;;;;;;;4.70;4.37;;;25.10;99.90;;;;;;4958898;28;20609;-76
2022/06/05 12:11:45;;;;;;;4.80;4.50;;;25.20;99.90;;;;;;4974070;28;20586;-76
2022/06/05 12:14:23;;;;;;;5.50;5.10;;;25.20;99.90;;;;;;4958427;28;21125;-76
2022/06/05 12:16:56;;;;;;;5.30;4.90;;;25.10;99.90;;;;;;4992322;28;20928;-76
2022/06/05 12:19:40;;;;;;;4.50;4.20;;;25.00;99.90;;;;;;4974724;28;20613;-76
2022/06/05 12:22:28;;;;;;;7.03;5.27;;;24.90;99.90;;;;;;4974301;28;20595;-76
2022/06/05 12:25:23;;;;;;;5.17;4.80;;;25.00;99.90;;;;;;4992216;28;20637;-76
2022/06/05 12:28:03;;;;;;;5.77;5.03;;;25.10;99.90;;;;;;4980315;28;20604;-77
2022/06/05 12:30:57;;;;;;;4.67;4.37;;;25.20;99.90;;;;;;4995876;28;20605;-77
2022/06/05 12:33:45;;;;;;;4.53;4.23;;;25.20;99.90;;;;;;4996078;28;20575;-77
2022/06/05 12:36:34;;;;;;;5.77;5.37;;;25.30;99.90;;;;;;4971047;28;20641;-77
2022/06/05 12:39:11;;;;;;;5.40;5.00;;;25.30;99.90;;;;;;4968276;28;20638;-77
2022/06/05 12:41:58;;;;;;;5.67;5.17;;;25.30;99.90;;;;;;4972683;28;20600;-77
2022/06/05 12:44:33;;;;;;;6.20;5.70;;;25.20;99.90;;;;;;4995981;28;20724;-77
2022/06/05 12:47:10;;;;;;;8.13;7.53;;;25.20;99.90;;;;;;4996142;28;20601;-77
2022/06/05 12:49:54;;;;;;;5.90;5.40;;;25.20;99.90;;;;;;4995905;28;20701;-77
2022/06/05 12:52:54;;;;;;;5.83;5.43;;;25.20;99.90;;;;;;5002008;28;20793;-77
2022/06/05 12:56:01;;;;;;;6.30;5.27;;;25.30;99.90;;;;;;5010932;28;20582;-76
2022/06/05 12:58:37;;;;;;;5.17;4.77;;;25.30;99.90;;;;;;5008960;28;21137;-77
2022/06/05 13:01:08;;;;;;;5.60;5.10;;;25.30;99.90;;;;;;4996120;28;20581;-77
2022/06/05 13:03:51;;;;;;;4.97;4.67;;;25.40;99.90;;;;;;4993445;28;20696;-77
2022/06/05 13:06:40;;;;;;;5.50;5.10;;;25.30;99.90;;;;;;4979619;28;20578;-76
2022/06/05 13:09:18;;;;;;;4.70;4.40;;;25.30;99.90;;;;;;4978112;28;20677;-76
2022/06/05 13:11:48;;;;;;;4.23;3.83;;;25.20;99.90;;;;;;4977317;28;20570;-76
2022/06/05 13:14:36;;;;;;;6.37;5.10;;;24.90;99.90;;;;;;4995481;28;20624;-77
2022/06/05 13:17:36;;;;;;;6.10;5.50;;;24.80;99.90;;;;;;4995190;28;21094;-76
2022/06/05 13:20:32;;;;;;;5.43;4.93;;;24.60;99.90;;;;;;4995107;28;20613;-76
2022/06/05 13:23:07;;;;;;;5.50;5.00;;;24.40;99.90;;;;;;4994899;28;20610;-76
2022/06/05 13:26:03;;;;;;;5.13;4.73;;;24.30;99.90;;;;;;4994963;28;20613;-76
2022/06/05 13:28:57;;;;;;;7.00;6.50;;;24.20;99.90;;;;;;4977716;28;20562;-76
2022/06/05 13:31:32;;;;;;;7.43;6.83;;;24.10;99.90;;;;;;4994470;28;20717;-77
2022/06/05 13:34:04;;;;;;;6.47;6.00;;;23.90;99.90;;;;;;4994838;28;20570;-77
2022/06/05 13:36:48;;;;;;;6.07;5.67;;;23.80;99.90;;;;;;4995139;28;20571;-77
2022/06/05 13:39:26;;;;;;;6.03;5.60;;;23.60;99.90;;;;;;4976463;28;20617;-77
2022/06/05 13:41:54;;;;;;;7.53;5.73;;;23.50;99.90;;;;;;4979057;28;20577;-76